Time;durP1;ratioP1;P1;durP2;ratioP2;P2;SDS_P1;SDS_P2;PMS_P1;PMS_P2;Temp;Humidity;BMP_temperature;BMP_pressure;BME280_temperature;BME280_humidity;BME280_pressure;Samples;Min_cycle;Max_cycle;Signal;HPM_P1;HPM_P2
2023/08/07 00:01:11;;;;;;;7.50;2.90;;;;;;;;;;5041210;28;20536;-77
2023/08/07 00:03:37;;;;;;;5.80;3.30;;;;;;;;;;5040523;28;20525;-77
2023/08/07 00:06:03;;;;;;;7.13;3.30;;;;;;;;;;5039263;28;20492;-74
2023/08/07 00:08:31;;;;;;;3.50;3.00;;;;;;;;;;5041316;28;20458;-75
2023/08/07 00:11:07;;;;;;;5.87;3.10;;;;;;;;;;5041539;28;20472;-76
2023/08/07 00:13:35;;;;;;;6.63;2.77;;;;;;;;;;5040577;28;20517;-77
2023/08/07 00:16:01;;;;;;;4.77;2.63;;;;;;;;;;5036650;28;20509;-76
2023/08/07 00:18:28;;;;;;;6.53;3.23;;;;;;;;;;5040536;28;20506;-76
2023/08/07 00:20:54;;;;;;;9.07;3.37;;;;;;;;;;5040877;28;20463;-76
2023/08/07 00:23:21;;;;;;;5.40;2.97;;;;;;;;;;5040558;28;20489;-76
2023/08/07 00:25:47;;;;;;;4.80;3.10;;;;;;;;;;5040399;28;20462;-76
2023/08/07 00:28:14;;;;;;;8.90;3.50;;;;;;;;;;5039699;28;20510;-76
2023/08/07 00:30:41;;;;;;;8.23;3.50;;;;;;;;;;5038557;28;20646;-77
2023/08/07 00:33:08;;;;;;;6.00;2.53;;;;;;;;;;5032593;28;20863;-76
2023/08/07 00:35:34;;;;;;;4.40;2.63;;;;;;;;;;5037104;28;20572;-76
2023/08/07 00:38:00;;;;;;;7.17;2.63;;;;;;;;;;5042208;28;20997;-77
2023/08/07 00:40:27;;;;;;;11.00;4.20;;;;;;;;;;5037154;28;20526;-76
2023/08/07 00:42:53;;;;;;;7.23;2.77;;;;;;;;;;5043277;28;20537;-76
2023/08/07 00:45:21;;;;;;;13.47;2.97;;;;;;;;;;5044443;28;20485;-76
2023/08/07 00:47:48;;;;;;;3.10;2.40;;;;;;;;;;5041502;28;20493;-77
2023/08/07 00:50:15;;;;;;;4.10;3.07;;;;;;;;;;5043935;28;20556;-76
2023/08/07 00:52:46;;;;;;;7.63;2.67;;;;;;;;;;5044551;28;20445;-76
2023/08/07 00:55:13;;;;;;;4.60;2.90;;;;;;;;;;5044687;28;20458;-76
2023/08/07 00:57:39;;;;;;;8.20;3.20;;;;;;;;;;5044489;28;20545;-77
2023/08/07 01:00:07;;;;;;;13.40;3.53;;;;;;;;;;5044446;28;20446;-77
2023/08/07 01:02:34;;;;;;;3.80;2.90;;;;;;;;;;5044506;28;20469;-76
2023/08/07 01:05:02;;;;;;;9.07;2.57;;;;;;;;;;5043597;28;20489;-76
2023/08/07 01:07:28;;;;;;;5.50;3.10;;;;;;;;;;5044455;28;20950;-76
2023/08/07 01:09:56;;;;;;;9.50;3.30;;;;;;;;;;5044148;28;20529;-77
2023/08/07 01:12:28;;;;;;;5.27;3.00;;;;;;;;;;5040796;28;20512;-77
2023/08/07 01:14:57;;;;;;;9.17;3.70;;;;;;;;;;5042648;28;20477;-77
2023/08/07 01:17:23;;;;;;;7.43;2.47;;;;;;;;;;5034152;28;20565;-76
2023/08/07 01:19:51;;;;;;;3.70;2.93;;;;;;;;;;5040910;28;20457;-77
2023/08/07 01:22:19;;;;;;;6.30;3.43;;;;;;;;;;5040516;28;20464;-77
2023/08/07 01:24:46;;;;;;;9.33;3.90;;;;;;;;;;5043549;28;20477;-77
2023/08/07 01:27:20;;;;;;;7.23;3.73;;;;;;;;;;5040876;28;20509;-76
2023/08/07 01:29:52;;;;;;;7.17;3.63;;;;;;;;;;5039862;28;20489;-75
2023/08/07 01:32:26;;;;;;;9.33;4.77;;;;;;;;;;5039777;28;20522;-77
2023/08/07 01:34:55;;;;;;;8.73;3.90;;;;;;;;;;5033540;28;20884;-77
2023/08/07 01:37:23;;;;;;;8.97;4.10;;;;;;;;;;5042089;28;20997;-76
2023/08/07 01:39:50;;;;;;;6.97;4.30;;;;;;;;;;5042987;28;20481;-77
2023/08/07 01:42:17;;;;;;;7.90;4.40;;;;;;;;;;5040094;28;21356;-77
2023/08/07 01:44:43;;;;;;;7.20;4.20;;;;;;;;;;5041366;28;20845;-76
2023/08/07 01:47:09;;;;;;;10.87;4.13;;;;;;;;;;5037899;28;20510;-77
2023/08/07 01:49:38;;;;;;;7.67;3.80;;;;;;;;;;5041976;28;20496;-76
2023/08/07 01:52:07;;;;;;;11.70;4.97;;;;;;;;;;5037363;28;20458;-77
2023/08/07 01:54:35;;;;;;;6.87;4.53;;;;;;;;;;5040540;28;20573;-77
2023/08/07 01:57:02;;;;;;;14.53;4.00;;;;;;;;;;5040885;28;20529;-76
2023/08/07 01:59:28;;;;;;;8.43;4.10;;;;;;;;;;5041784;28;21042;-77
2023/08/07 02:01:55;;;;;;;6.97;3.87;;;;;;;;;;5043196;28;20457;-77
2023/08/07 02:04:21;;;;;;;9.60;4.40;;;;;;;;;;5042366;28;20489;-77
2023/08/07 02:06:47;;;;;;;11.47;4.97;;;;;;;;;;5043214;28;20469;-77
2023/08/07 02:09:14;;;;;;;8.63;4.80;;;;;;;;;;5038713;28;20534;-77
2023/08/07 02:11:42;;;;;;;8.00;4.80;;;;;;;;;;5043120;28;20466;-77
2023/08/07 02:14:09;;;;;;;7.27;4.80;;;;;;;;;;5042130;28;20553;-76
2023/08/07 02:16:35;;;;;;;5.30;4.40;;;;;;;;;;5033947;28;20525;-76
2023/08/07 02:19:01;;;;;;;6.77;4.60;;;;;;;;;;5042888;28;20457;-76
2023/08/07 02:21:28;;;;;;;7.70;4.13;;;;;;;;;;5042682;28;20493;-76
2023/08/07 02:23:54;;;;;;;5.70;3.80;;;;;;;;;;5039238;28;20583;-76
2023/08/07 02:26:20;;;;;;;7.10;4.00;;;;;;;;;;5042845;28;20562;-76
2023/08/07 02:28:48;;;;;;;7.47;3.83;;;;;;;;;;5034466;28;20533;-76
2023/08/07 02:31:14;;;;;;;7.67;4.60;;;;;;;;;;5043343;28;20541;-77
2023/08/07 02:33:41;;;;;;;7.53;5.03;;;;;;;;;;5039167;28;20469;-77
2023/08/07 02:36:07;;;;;;;9.83;5.20;;;;;;;;;;5041335;28;20457;-77
2023/08/07 02:38:34;;;;;;;6.33;4.90;;;;;;;;;;5043037;28;20509;-77
2023/08/07 02:41:00;;;;;;;7.53;4.87;;;;;;;;;;5042635;28;20476;-77
2023/08/07 02:43:28;;;;;;;8.70;3.93;;;;;;;;;;5042352;28;20528;-77
2023/08/07 02:45:56;;;;;;;9.83;4.00;;;;;;;;;;5042768;28;20496;-77
2023/08/07 02:48:22;;;;;;;11.63;4.60;;;;;;;;;;5042780;28;20453;-77
2023/08/07 02:50:51;;;;;;;6.17;4.70;;;;;;;;;;5041475;28;20534;-77
2023/08/07 02:53:17;;;;;;;9.73;4.30;;;;;;;;;;5042612;28;20448;-77
2023/08/07 02:55:44;;;;;;;6.50;4.27;;;;;;;;;;5042616;28;20525;-77
2023/08/07 02:58:10;;;;;;;7.93;4.80;;;;;;;;;;5041367;28;21065;-76
2023/08/07 03:00:36;;;;;;;7.53;5.00;;;;;;;;;;5040612;28;20565;-76
2023/08/07 03:03:04;;;;;;;9.73;5.60;;;;;;;;;;5040683;28;20500;-76
2023/08/07 03:05:31;;;;;;;4.83;4.30;;;;;;;;;;5041723;28;20525;-76
2023/08/07 03:07:57;;;;;;;8.60;5.17;;;;;;;;;;5042541;28;20514;-76
2023/08/07 03:10:23;;;;;;;7.80;4.20;;;;;;;;;;5039562;28;20501;-76
2023/08/07 03:12:50;;;;;;;9.80;5.67;;;;;;;;;;5037551;28;20517;-77
2023/08/07 03:15:16;;;;;;;6.63;5.00;;;;;;;;;;5039190;28;20482;-77
2023/08/07 03:17:43;;;;;;;7.20;5.07;;;;;;;;;;5037330;28;20543;-77
2023/08/07 03:20:11;;;;;;;10.07;4.63;;;;;;;;;;5037028;28;20537;-76
2023/08/07 03:22:38;;;;;;;7.97;5.60;;;;;;;;;;5038342;28;20464;-76
2023/08/07 03:25:04;;;;;;;9.00;5.80;;;;;;;;;;5040138;28;20533;-76
2023/08/07 03:27:31;;;;;;;11.97;6.00;;;;;;;;;;5040056;28;20489;-76
2023/08/07 03:29:57;;;;;;;6.87;5.87;;;;;;;;;;5037951;28;20471;-76
2023/08/07 03:32:23;;;;;;;6.70;5.77;;;;;;;;;;5033495;28;20544;-76
2023/08/07 03:34:50;;;;;;;10.67;6.47;;;;;;;;;;5035974;28;20489;-76
2023/08/07 03:37:17;;;;;;;9.50;6.47;;;;;;;;;;5041411;28;20502;-76
2023/08/07 03:39:47;;;;;;;14.13;6.43;;;;;;;;;;5041451;28;20538;-76
2023/08/07 03:42:14;;;;;;;7.83;6.50;;;;;;;;;;5041413;28;20458;-77
2023/08/07 03:44:41;;;;;;;10.50;6.50;;;;;;;;;;5041137;28;20465;-75
2023/08/07 03:47:07;;;;;;;11.80;7.93;;;;;;;;;;5041340;28;20897;-77
2023/08/07 03:49:33;;;;;;;8.57;7.40;;;;;;;;;;5041017;28;20473;-76
2023/08/07 03:52:00;;;;;;;9.07;6.27;;;;;;;;;;5039610;28;20899;-75
2023/08/07 03:54:28;;;;;;;11.13;6.87;;;;;;;;;;5035880;28;20561;-75
2023/08/07 03:56:54;;;;;;;9.20;6.30;;;;;;;;;;5039937;28;20548;-76
2023/08/07 03:59:20;;;;;;;13.33;7.23;;;;;;;;;;5040662;28;20478;-75
2023/08/07 04:01:47;;;;;;;8.57;7.10;;;;;;;;;;5037124;28;20477;-76
2023/08/07 04:04:13;;;;;;;9.20;7.20;;;;;;;;;;5039691;28;20919;-76
2023/08/07 04:06:39;;;;;;;8.00;7.20;;;;;;;;;;5041095;28;20473;-76
2023/08/07 04:09:06;;;;;;;12.60;7.27;;;;;;;;;;5040371;28;20517;-76
2023/08/07 04:11:34;;;;;;;7.60;6.90;;;;;;;;;;5037550;28;20446;-76
2023/08/07 04:14:00;;;;;;;7.70;6.87;;;;;;;;;;5039960;28;20491;-76
2023/08/07 04:16:26;;;;;;;10.40;7.30;;;;;;;;;;5036161;28;20460;-76
2023/08/07 04:18:53;;;;;;;10.43;7.73;;;;;;;;;;5038646;28;20461;-76
2023/08/07 04:21:19;;;;;;;10.77;7.37;;;;;;;;;;5037999;28;20480;-77
2023/08/07 04:23:46;;;;;;;8.23;7.40;;;;;;;;;;5039128;28;20446;-76
2023/08/07 04:26:12;;;;;;;10.07;7.73;;;;;;;;;;5040463;28;20485;-75
2023/08/07 04:28:40;;;;;;;13.73;8.10;;;;;;;;;;5040086;28;20476;-76
2023/08/07 04:31:06;;;;;;;12.57;7.27;;;;;;;;;;5035163;28;20561;-75
2023/08/07 04:33:32;;;;;;;14.10;7.30;;;;;;;;;;5036733;28;20497;-76
2023/08/07 04:35:59;;;;;;;9.43;6.80;;;;;;;;;;5034124;28;21035;-75
2023/08/07 04:38:28;;;;;;;7.53;6.53;;;;;;;;;;5037767;28;20505;-75
2023/08/07 04:40:54;;;;;;;12.50;6.90;;;;;;;;;;5034579;28;20490;-76
2023/08/07 04:43:21;;;;;;;8.30;6.87;;;;;;;;;;5033317;28;20441;-76
2023/08/07 04:45:49;;;;;;;8.17;6.77;;;;;;;;;;5028465;28;20465;-76
2023/08/07 04:48:15;;;;;;;7.17;6.47;;;;;;;;;;5039395;28;20484;-75
2023/08/07 04:50:42;;;;;;;10.53;6.37;;;;;;;;;;5040194;28;20458;-76
2023/08/07 04:53:08;;;;;;;6.60;5.77;;;;;;;;;;5038512;28;20532;-75
2023/08/07 04:55:35;;;;;;;8.13;6.13;;;;;;;;;;5038787;28;20529;-75
2023/08/07 04:58:04;;;;;;;7.23;6.53;;;;;;;;;;5040023;28;20572;-76
2023/08/07 05:00:30;;;;;;;6.93;5.70;;;;;;;;;;5030281;28;21221;-75
2023/08/07 05:02:58;;;;;;;8.30;6.50;;;;;;;;;;5039175;28;20489;-76
2023/08/07 05:05:24;;;;;;;7.47;5.93;;;;;;;;;;5037954;28;20519;-76
2023/08/07 05:07:51;;;;;;;10.53;5.90;;;;;;;;;;5037401;28;20496;-75
2023/08/07 05:10:17;;;;;;;6.33;4.50;;;;;;;;;;5038029;28;20485;-75
2023/08/07 05:12:43;;;;;;;6.43;4.93;;;;;;;;;;5029730;28;20525;-73
2023/08/07 05:15:10;;;;;;;6.47;4.53;;;;;;;;;;5028971;28;20526;-77
2023/08/07 05:17:36;;;;;;;5.70;4.77;;;;;;;;;;5030580;28;21243;-75
2023/08/07 05:20:08;;;;;;;6.37;4.73;;;;;;;;;;5028832;28;20487;-75
2023/08/07 05:22:35;;;;;;;6.70;4.30;;;;;;;;;;5035571;28;20556;-72
2023/08/07 05:25:01;;;;;;;5.77;4.13;;;;;;;;;;5038871;28;20521;-72
2023/08/07 05:27:27;;;;;;;5.97;4.37;;;;;;;;;;5037448;28;20481;-73
2023/08/07 05:29:54;;;;;;;7.03;3.73;;;;;;;;;;5042145;28;20489;-72
2023/08/07 05:32:20;;;;;;;9.50;4.37;;;;;;;;;;5043376;28;20962;-72
2023/08/07 05:34:47;;;;;;;4.60;3.60;;;;;;;;;;5042438;28;20462;-72
2023/08/07 05:37:14;;;;;;;4.90;3.73;;;;;;;;;;5042402;28;20540;-72
2023/08/07 05:39:41;;;;;;;4.60;3.50;;;;;;;;;;5042260;28;20485;-73
2023/08/07 05:42:07;;;;;;;7.20;3.50;;;;;;;;;;5038288;28;20537;-72
2023/08/07 05:44:34;;;;;;;6.97;3.07;;;;;;;;;;5041966;28;20450;-73
2023/08/07 05:47:00;;;;;;;5.77;3.03;;;;;;;;;;5042635;28;20521;-75
2023/08/07 05:49:26;;;;;;;6.13;3.70;;;;;;;;;;5039939;28;20486;-76
2023/08/07 05:51:53;;;;;;;5.37;2.83;;;;;;;;;;5042262;28;20537;-75
2023/08/07 05:54:21;;;;;;;8.23;3.07;;;;;;;;;;5039036;28;20476;-76
2023/08/07 05:56:49;;;;;;;8.03;3.27;;;;;;;;;;5043234;28;20454;-73
2023/08/07 05:59:16;;;;;;;7.17;3.33;;;;;;;;;;5041945;28;20581;-72
2023/08/07 06:01:42;;;;;;;5.43;2.50;;;;;;;;;;5043007;28;21058;-73
2023/08/07 06:04:09;;;;;;;6.27;2.57;;;;;;;;;;5037517;28;20511;-73
2023/08/07 06:06:35;;;;;;;6.30;2.60;;;;;;;;;;5042043;28;20453;-75
2023/08/07 06:09:02;;;;;;;3.40;2.70;;;;;;;;;;5033943;28;20451;-73
2023/08/07 06:11:30;;;;;;;4.20;2.87;;;;;;;;;;5041750;28;20555;-73
2023/08/07 06:13:56;;;;;;;4.30;2.30;;;;;;;;;;5042277;28;20482;-73
2023/08/07 06:16:23;;;;;;;5.33;2.17;;;;;;;;;;5043145;28;20485;-74
2023/08/07 06:18:49;;;;;;;6.83;2.90;;;;;;;;;;5042437;28;20509;-74
2023/08/07 06:21:16;;;;;;;6.60;2.83;;;;;;;;;;5041968;28;20545;-73
2023/08/07 06:23:42;;;;;;;5.63;2.27;;;;;;;;;;5040600;28;20521;-73
2023/08/07 06:26:09;;;;;;;7.00;2.40;;;;;;;;;;5041374;28;20450;-74
2023/08/07 06:28:37;;;;;;;4.50;2.23;;;;;;;;;;5033075;28;20482;-74
2023/08/07 06:31:03;;;;;;;5.33;2.10;;;;;;;;;;5037420;28;20450;-73
2023/08/07 06:33:30;;;;;;;6.80;2.23;;;;;;;;;;5035644;28;20457;-73
2023/08/07 06:35:57;;;;;;;3.23;2.00;;;;;;;;;;5041161;28;20934;-73
2023/08/07 06:38:24;;;;;;;3.93;1.90;;;;;;;;;;5036770;28;20572;-73
2023/08/07 06:40:50;;;;;;;3.90;1.80;;;;;;;;;;5029934;28;20482;-74
2023/08/07 06:43:17;;;;;;;3.70;1.90;;;;;;;;;;5039183;28;20493;-72
2023/08/07 06:45:47;;;;;;;6.70;1.77;;;;;;;;;;5038800;28;20462;-73
2023/08/07 06:48:14;;;;;;;4.50;1.97;;;;;;;;;;5040951;28;20453;-75
2023/08/07 06:50:40;;;;;;;4.80;2.10;;;;;;;;;;5039827;28;20531;-73
2023/08/07 06:53:06;;;;;;;4.37;1.87;;;;;;;;;;5040702;28;20461;-72
2023/08/07 06:55:33;;;;;;;4.07;1.70;;;;;;;;;;5040036;28;20489;-73
2023/08/07 06:57:59;;;;;;;3.10;2.47;;;;;;;;;;5036845;28;20478;-74
2023/08/07 07:00:25;;;;;;;4.67;1.73;;;;;;;;;;5036240;28;20485;-73
2023/08/07 07:02:54;;;;;;;5.77;1.70;;;;;;;;;;5043525;28;20489;-73
2023/08/07 07:05:20;;;;;;;4.30;2.20;;;;;;;;;;5036806;28;20458;-74
2023/08/07 07:07:46;;;;;;;3.47;2.07;;;;;;;;;;5039995;28;20564;-73
2023/08/07 07:10:13;;;;;;;2.93;1.83;;;;;;;;;;5040120;28;20485;-74
2023/08/07 07:12:39;;;;;;;3.30;1.67;;;;;;;;;;5039172;28;20461;-72
2023/08/07 07:15:06;;;;;;;4.20;1.67;;;;;;;;;;5032474;28;20493;-73
2023/08/07 07:17:32;;;;;;;1.90;1.40;;;;;;;;;;5040443;28;20450;-74
2023/08/07 07:20:00;;;;;;;2.80;1.60;;;;;;;;;;5037865;28;20567;-73
2023/08/07 07:22:28;;;;;;;3.03;1.90;;;;;;;;;;5039798;28;20863;-74
2023/08/07 07:24:55;;;;;;;3.10;1.70;;;;;;;;;;5039517;28;20492;-74
2023/08/07 07:27:22;;;;;;;2.97;1.80;;;;;;;;;;5039567;28;20540;-75
2023/08/07 07:29:48;;;;;;;3.00;1.43;;;;;;;;;;5039384;28;20450;-75
2023/08/07 07:32:14;;;;;;;4.83;2.10;;;;;;;;;;5039932;28;20465;-75
2023/08/07 07:34:41;;;;;;;3.23;1.87;;;;;;;;;;5038016;28;20504;-75
2023/08/07 07:37:09;;;;;;;4.60;2.30;;;;;;;;;;5034802;28;20446;-75
2023/08/07 07:39:36;;;;;;;4.73;2.13;;;;;;;;;;5039386;28;20558;-73
2023/08/07 07:42:03;;;;;;;4.53;2.67;;;;;;;;;;5033928;28;20576;-75
2023/08/07 07:44:30;;;;;;;4.60;2.07;;;;;;;;;;5036552;28;21249;-74
2023/08/07 07:46:56;;;;;;;4.17;2.13;;;;;;;;;;5032650;28;21442;-74
2023/08/07 07:49:25;;;;;;;5.80;2.27;;;;;;;;;;5033281;28;20470;-74
2023/08/07 07:51:52;;;;;;;4.60;2.57;;;;;;;;;;5039078;28;20473;-74
2023/08/07 07:54:20;;;;;;;3.37;2.50;;;;;;;;;;5034653;28;20449;-74
2023/08/07 07:56:46;;;;;;;4.83;1.70;;;;;;;;;;5030510;28;20457;-73
2023/08/07 07:59:13;;;;;;;5.60;2.43;;;;;;;;;;5034034;28;20581;-74
2023/08/07 08:01:39;;;;;;;3.87;1.80;;;;;;;;;;5030488;28;20470;-73
2023/08/07 08:04:06;;;;;;;3.20;1.57;;;;;;;;;;5038373;28;20453;-73
2023/08/07 08:06:32;;;;;;;2.70;1.83;;;;;;;;;;5038580;28;20463;-73
2023/08/07 08:08:59;;;;;;;3.30;1.80;;;;;;;;;;5039407;28;20450;-73
2023/08/07 08:11:27;;;;;;;2.00;1.27;;;;;;;;;;5038291;28;20560;-73
2023/08/07 08:13:53;;;;;;;2.30;1.37;;;;;;;;;;5039220;28;20493;-73
2023/08/07 08:16:19;;;;;;;4.80;1.47;;;;;;;;;;5039273;28;20488;-73
2023/08/07 08:18:46;;;;;;;2.50;1.60;;;;;;;;;;5038314;28;20564;-74
2023/08/07 08:21:12;;;;;;;4.40;1.63;;;;;;;;;;5038251;28;20553;-73
2023/08/07 08:23:39;;;;;;;3.30;2.00;;;;;;;;;;5039017;28;20474;-73
2023/08/07 08:26:05;;;;;;;3.13;1.70;;;;;;;;;;5038412;28;20457;-72
2023/08/07 08:28:33;;;;;;;4.93;2.37;;;;;;;;;;5039132;28;20532;-74
2023/08/07 08:30:59;;;;;;;10.77;2.40;;;;;;;;;;5036851;28;20454;-74
2023/08/07 08:33:26;;;;;;;5.73;3.10;;;;;;;;;;5038762;28;20442;-74
2023/08/07 08:35:53;;;;;;;3.53;2.50;;;;;;;;;;5036239;28;20456;-73
2023/08/07 08:38:20;;;;;;;4.50;2.30;;;;;;;;;;5037334;28;20548;-73
2023/08/07 08:40:46;;;;;;;3.90;2.20;;;;;;;;;;5034297;28;20503;-73
2023/08/07 08:43:13;;;;;;;8.07;2.53;;;;;;;;;;5028125;28;20487;-74
2023/08/07 08:45:41;;;;;;;8.40;2.57;;;;;;;;;;5038409;28;20583;-73
2023/08/07 08:48:08;;;;;;;6.97;2.53;;;;;;;;;;5039166;28;20446;-74
2023/08/07 08:50:37;;;;;;;5.03;1.90;;;;;;;;;;5030084;28;20602;-74
2023/08/07 08:53:03;;;;;;;6.13;2.17;;;;;;;;;;5038163;28;20465;-74
2023/08/07 08:55:30;;;;;;;7.80;2.30;;;;;;;;;;5037921;28;20916;-73
2023/08/07 08:58:00;;;;;;;7.43;2.27;;;;;;;;;;5040280;28;20466;-74
2023/08/07 09:00:29;;;;;;;6.57;2.63;;;;;;;;;;5041841;28;20454;-74
2023/08/07 09:02:57;;;;;;;5.43;2.33;;;;;;;;;;5042640;28;20446;-74
2023/08/07 09:05:23;;;;;;;6.00;2.60;;;;;;;;;;5042090;28;20486;-73
2023/08/07 09:07:50;;;;;;;4.47;2.60;;;;;;;;;;5042816;28;20454;-74
2023/08/07 09:10:17;;;;;;;9.60;2.90;;;;;;;;;;5039889;28;20477;-73
2023/08/07 09:12:46;;;;;;;8.83;2.27;;;;;;;;;;5042278;28;20479;-74
2023/08/07 09:15:16;;;;;;;6.50;2.50;;;;;;;;;;5042347;28;20485;-74
2023/08/07 09:17:43;;;;;;;4.57;2.23;;;;;;;;;;5042323;28;20484;-74
2023/08/07 09:20:13;;;;;;;3.60;2.20;;;;;;;;;;5041324;28;21123;-74
2023/08/07 09:22:39;;;;;;;5.27;2.07;;;;;;;;;;5040540;28;20457;-74
2023/08/07 09:25:06;;;;;;;4.60;2.20;;;;;;;;;;5041819;28;20504;-72
2023/08/07 09:27:33;;;;;;;7.20;2.40;;;;;;;;;;5042885;28;20485;-74
2023/08/07 09:30:00;;;;;;;5.23;2.67;;;;;;;;;;5042699;28;20454;-74
2023/08/07 09:32:27;;;;;;;5.87;2.40;;;;;;;;;;5042280;28;20458;-74
2023/08/07 09:34:54;;;;;;;5.83;2.63;;;;;;;;;;5042103;28;20465;-74
2023/08/07 09:37:24;;;;;;;6.87;2.50;;;;;;;;;;5042421;28;20449;-74
2023/08/07 09:39:50;;;;;;;3.33;2.50;;;;;;;;;;5042127;28;20501;-74
2023/08/07 09:42:17;;;;;;;2.83;1.60;;;;;;;;;;5032449;28;20450;-74
2023/08/07 09:44:44;;;;;;;6.70;2.50;;;;;;;;;;5042107;28;20488;-74
2023/08/07 09:47:14;;;;;;;2.33;1.83;;;;;;;;;;5042512;28;20501;-73
2023/08/07 09:49:41;;;;;;;5.23;1.93;;;;;;;;;;5041605;28;20465;-74
2023/08/07 09:52:08;;;;;;;5.60;2.53;;;;;;;;;;5042123;28;20453;-74
2023/08/07 09:54:36;;;;;;;6.20;2.00;;;;;;;;;;5042098;28;20886;-73
2023/08/07 09:57:02;;;;;;;3.20;1.80;;;;;;;;;;5042298;28;20516;-74
2023/08/07 09:59:29;;;;;;;3.70;1.93;;;;;;;;;;5039962;28;20597;-74
2023/08/07 10:01:56;;;;;;;5.47;2.03;;;;;;;;;;5041939;28;20489;-74
2023/08/07 10:04:22;;;;;;;5.33;1.50;;;;;;;;;;5040568;28;20465;-76
2023/08/07 10:06:49;;;;;;;4.87;2.20;;;;;;;;;;5038664;28;20489;-74
2023/08/07 10:09:16;;;;;;;4.97;1.90;;;;;;;;;;5037984;28;20489;-74
2023/08/07 10:11:44;;;;;;;2.77;1.30;;;;;;;;;;5036684;28;20480;-73
2023/08/07 10:14:10;;;;;;;4.40;1.77;;;;;;;;;;5040391;28;20489;-74
2023/08/07 10:16:39;;;;;;;5.57;2.23;;;;;;;;;;5033919;28;20465;-74
2023/08/07 10:19:06;;;;;;;3.70;1.60;;;;;;;;;;5042946;28;21037;-74
2023/08/07 10:21:33;;;;;;;5.17;1.60;;;;;;;;;;5042146;28;20454;-74
2023/08/07 10:24:00;;;;;;;5.83;2.23;;;;;;;;;;5038187;28;20466;-73
2023/08/07 10:26:27;;;;;;;3.87;1.87;;;;;;;;;;5037723;28;20454;-74
2023/08/07 10:28:55;;;;;;;6.80;2.40;;;;;;;;;;5035577;28;20439;-73
2023/08/07 10:31:23;;;;;;;4.40;2.00;;;;;;;;;;5044315;28;20525;-74
2023/08/07 10:33:49;;;;;;;4.80;2.03;;;;;;;;;;5040772;28;20462;-73
2023/08/07 10:36:17;;;;;;;2.70;1.10;;;;;;;;;;5034575;28;20509;-74
2023/08/07 10:38:43;;;;;;;4.83;1.70;;;;;;;;;;5042860;28;20449;-75
2023/08/07 10:41:10;;;;;;;1.80;1.20;;;;;;;;;;5042622;28;20981;-74
2023/08/07 10:43:40;;;;;;;2.53;1.40;;;;;;;;;;5040823;28;20478;-76
2023/08/07 10:46:09;;;;;;;2.30;1.23;;;;;;;;;;5042318;28;20473;-75
2023/08/07 10:48:39;;;;;;;2.70;1.33;;;;;;;;;;5039337;28;20518;-75
2023/08/07 10:51:06;;;;;;;2.87;1.43;;;;;;;;;;5041337;28;20553;-74
2023/08/07 10:53:33;;;;;;;1.67;1.20;;;;;;;;;;5042751;28;20461;-75
2023/08/07 10:56:02;;;;;;;4.30;1.73;;;;;;;;;;5041826;28;20464;-75
2023/08/07 10:58:30;;;;;;;2.70;1.70;;;;;;;;;;5038697;28;20462;-74
2023/08/07 11:01:11;;;;;;;3.40;1.77;;;;;;;;;;5039427;28;20470;-77
2023/08/07 11:03:41;;;;;;;5.40;1.90;;;;;;;;;;5036170;28;20457;-77
2023/08/07 11:06:07;;;;;;;5.67;2.53;;;;;;;;;;5026528;28;20533;-77
2023/08/07 11:08:34;;;;;;;3.50;1.60;;;;;;;;;;5024229;28;20451;-76
2023/08/07 11:11:04;;;;;;;3.37;1.67;;;;;;;;;;5031003;28;20882;-77
2023/08/07 11:13:31;;;;;;;5.10;2.00;;;;;;;;;;5028925;28;20486;-75
2023/08/07 11:15:59;;;;;;;5.03;2.20;;;;;;;;;;5031172;28;20519;-77
2023/08/07 11:18:26;;;;;;;4.33;2.30;;;;;;;;;;5029788;28;20443;-76
2023/08/07 11:20:53;;;;;;;4.80;2.23;;;;;;;;;;5034581;28;20516;-77
2023/08/07 11:23:23;;;;;;;6.60;3.10;;;;;;;;;;5026860;28;20943;-76
2023/08/07 11:25:49;;;;;;;6.13;2.30;;;;;;;;;;5027336;28;20490;-76
2023/08/07 11:28:18;;;;;;;4.10;3.10;;;;;;;;;;5028455;28;21023;-77
2023/08/07 11:30:44;;;;;;;6.17;2.60;;;;;;;;;;5027106;28;20494;-76
2023/08/07 11:33:12;;;;;;;8.43;2.60;;;;;;;;;;5028707;28;20459;-76
2023/08/07 11:35:41;;;;;;;5.73;2.90;;;;;;;;;;5029670;28;20538;-77
2023/08/07 11:38:09;;;;;;;4.97;2.90;;;;;;;;;;5039729;28;20462;-76
2023/08/07 11:40:35;;;;;;;6.80;2.57;;;;;;;;;;5025130;28;20496;-77
2023/08/07 11:43:02;;;;;;;7.83;3.27;;;;;;;;;;5028444;28;20724;-77
2023/08/07 11:45:28;;;;;;;8.57;3.20;;;;;;;;;;5024560;28;20488;-77
2023/08/07 11:47:56;;;;;;;6.60;2.27;;;;;;;;;;5031558;28;20466;-76
2023/08/07 11:50:23;;;;;;;5.50;2.67;;;;;;;;;;5025001;28;20450;-76
2023/08/07 11:52:50;;;;;;;5.60;2.50;;;;;;;;;;5024593;28;20865;-78
2023/08/07 11:55:18;;;;;;;7.03;2.43;;;;;;;;;;5031218;28;20454;-77
2023/08/07 11:57:46;;;;;;;7.30;2.57;;;;;;;;;;5035946;28;20446;-76
2023/08/07 12:00:13;;;;;;;7.83;3.10;;;;;;;;;;5026869;28;20518;-76
2023/08/07 12:02:42;;;;;;;7.67;3.27;;;;;;;;;;5034884;28;20852;-77
2023/08/07 12:05:10;;;;;;;5.37;2.37;;;;;;;;;;5034615;28;20545;-77
2023/08/07 12:07:37;;;;;;;6.83;2.73;;;;;;;;;;5024665;28;20442;-77
2023/08/07 12:10:03;;;;;;;5.03;2.90;;;;;;;;;;5025137;28;20450;-77
2023/08/07 12:12:35;;;;;;;7.70;2.90;;;;;;;;;;5036942;28;20474;-77
2023/08/07 12:15:04;;;;;;;5.67;2.23;;;;;;;;;;5027967;28;20451;-77
2023/08/07 12:17:31;;;;;;;5.47;2.47;;;;;;;;;;5029560;28;20447;-77
2023/08/07 12:19:58;;;;;;;7.70;2.53;;;;;;;;;;5034209;28;20516;-76
2023/08/07 12:22:30;;;;;;;3.33;2.23;;;;;;;;;;5036804;28;20489;-77
2023/08/07 12:24:56;;;;;;;7.00;2.47;;;;;;;;;;5034860;28;20461;-76
2023/08/07 12:27:22;;;;;;;5.17;2.43;;;;;;;;;;5038368;28;20556;-77
2023/08/07 12:29:50;;;;;;;7.90;2.93;;;;;;;;;;5041407;28;20473;-76
2023/08/07 12:32:17;;;;;;;5.97;2.60;;;;;;;;;;5042343;28;20928;-75
2023/08/07 12:34:43;;;;;;;7.60;3.00;;;;;;;;;;5045224;28;20481;-75
2023/08/07 12:37:09;;;;;;;7.83;2.50;;;;;;;;;;5045046;28;20488;-75
2023/08/07 12:39:36;;;;;;;3.50;2.40;;;;;;;;;;5042446;28;20527;-74
2023/08/07 12:42:03;;;;;;;9.83;2.57;;;;;;;;;;5040046;28;20965;-75
2023/08/07 12:44:30;;;;;;;4.93;2.70;;;;;;;;;;5043352;28;20457;-75
2023/08/07 12:46:57;;;;;;;15.10;2.90;;;;;;;;;;5044600;28;20892;-76
2023/08/07 12:49:24;;;;;;;11.10;2.77;;;;;;;;;;5043357;28;20489;-76
2023/08/07 12:51:51;;;;;;;7.10;2.47;;;;;;;;;;5041229;28;20485;-76
2023/08/07 12:54:18;;;;;;;6.63;2.73;;;;;;;;;;5044137;28;20963;-76
2023/08/07 12:56:44;;;;;;;8.80;2.47;;;;;;;;;;5035887;28;20454;-75
2023/08/07 12:59:11;;;;;;;4.87;2.40;;;;;;;;;;5044407;28;20477;-75
2023/08/07 13:01:38;;;;;;;6.60;2.93;;;;;;;;;;5044079;28;21045;-76
2023/08/07 13:04:07;;;;;;;4.90;2.57;;;;;;;;;;5043587;28;20472;-75
2023/08/07 13:06:34;;;;;;;8.57;2.33;;;;;;;;;;5044068;28;20515;-75
2023/08/07 13:09:01;;;;;;;14.30;3.33;;;;;;;;;;5043720;28;20453;-75
2023/08/07 13:11:27;;;;;;;4.90;2.57;;;;;;;;;;5042544;28;20453;-76
2023/08/07 13:13:54;;;;;;;4.17;2.10;;;;;;;;;;5038682;28;20842;-75
2023/08/07 13:16:20;;;;;;;8.13;2.67;;;;;;;;;;5044287;28;20465;-74
2023/08/07 13:18:47;;;;;;;7.83;2.50;;;;;;;;;;5043520;28;20481;-75
2023/08/07 13:21:14;;;;;;;5.13;2.77;;;;;;;;;;5039466;28;20536;-75
2023/08/07 13:23:41;;;;;;;7.20;2.77;;;;;;;;;;5041773;28;20997;-75
2023/08/07 13:26:07;;;;;;;4.93;2.50;;;;;;;;;;5040672;28;20483;-73
2023/08/07 13:28:34;;;;;;;6.90;2.63;;;;;;;;;;5041799;28;20521;-75
2023/08/07 13:31:00;;;;;;;8.77;2.43;;;;;;;;;;5038411;28;20486;-75
2023/08/07 13:33:26;;;;;;;6.27;2.43;;;;;;;;;;5043085;28;20513;-75
2023/08/07 13:35:53;;;;;;;4.63;2.40;;;;;;;;;;5042122;28;20485;-74
2023/08/07 13:38:20;;;;;;;6.10;2.63;;;;;;;;;;5041746;28;20548;-76
2023/08/07 13:40:47;;;;;;;8.13;3.10;;;;;;;;;;5041421;28;20489;-76
2023/08/07 13:43:13;;;;;;;5.10;2.00;;;;;;;;;;5040092;28;20511;-75
2023/08/07 13:45:40;;;;;;;4.73;2.50;;;;;;;;;;5039286;28;21193;-76
2023/08/07 13:48:09;;;;;;;6.37;2.13;;;;;;;;;;5040045;28;20449;-74
2023/08/07 13:50:37;;;;;;;4.00;2.70;;;;;;;;;;5041157;28;20462;-76
2023/08/07 13:53:03;;;;;;;4.60;2.47;;;;;;;;;;5041270;28;20475;-76
2023/08/07 13:55:32;;;;;;;4.67;2.10;;;;;;;;;;5042541;28;20461;-75
2023/08/07 13:57:58;;;;;;;5.10;2.17;;;;;;;;;;5041223;28;20552;-76
2023/08/07 14:00:25;;;;;;;7.67;2.83;;;;;;;;;;5042913;28;20512;-76
2023/08/07 14:02:51;;;;;;;4.67;2.70;;;;;;;;;;5043248;28;20521;-76
2023/08/07 14:05:18;;;;;;;4.03;2.73;;;;;;;;;;5040757;28;20497;-75
2023/08/07 14:07:44;;;;;;;7.20;2.60;;;;;;;;;;5043316;28;20449;-76
2023/08/07 14:10:10;;;;;;;6.50;2.87;;;;;;;;;;5042856;28;20989;-73
2023/08/07 14:12:38;;;;;;;2.70;2.30;;;;;;;;;;5039061;28;20493;-76
2023/08/07 14:15:05;;;;;;;4.60;1.90;;;;;;;;;;5042721;28;20496;-76
2023/08/07 14:17:32;;;;;;;7.30;2.33;;;;;;;;;;5041614;28;20517;-76
2023/08/07 14:19:58;;;;;;;10.50;3.13;;;;;;;;;;5034682;28;20485;-76
2023/08/07 14:22:25;;;;;;;6.93;2.23;;;;;;;;;;5034527;28;20450;-76
2023/08/07 14:24:51;;;;;;;6.70;2.27;;;;;;;;;;5037727;28;20515;-75
2023/08/07 14:27:17;;;;;;;3.30;2.50;;;;;;;;;;5041208;28;20469;-77
2023/08/07 14:29:45;;;;;;;5.03;2.30;;;;;;;;;;5028330;28;20880;-76
2023/08/07 14:32:12;;;;;;;7.40;2.33;;;;;;;;;;5022841;28;20477;-75
2023/08/07 14:34:38;;;;;;;4.67;2.30;;;;;;;;;;5034613;28;20549;-76
2023/08/07 14:37:05;;;;;;;4.93;2.30;;;;;;;;;;5035135;28;20447;-78
2023/08/07 14:39:31;;;;;;;4.83;1.93;;;;;;;;;;5034083;28;20441;-76